Sunset Colony, South Dakota
Current Conditions -  °F | °C
As of 2:55 AM on Wednesday 26 Nov 2014 (Local Time) from KGWR Reporting Station
Overcast Overcast  
Wind Chill:   Ceiling: 500
Heat Index: 18°   Visibility: 3mi
Dew Point: 12°   Wind: 21mph
Humidity: 79%   Direction: 10°N
Pressure: 30.12"   Gusts: NA
Location:  45.8144°N, 97.7089°W
Report Text: KGWR 260855Z AUTO 01018KT 3SM BKN005 BKN010 OVC070 M08/M11 A3012 RMK A01 P000
Loading
Personal Weather Stations






























Interactive Weather Map New forecast layout! Learn more

10-Day Weather Forecast

Advertisements
Track Severe Weather on mobile